createdAt,value
2023-03-26T00:03:35.888Z,999.87
2023-03-26T00:13:42.313Z,999.94
2023-03-26T00:23:48.570Z,1000.01
2023-03-26T00:33:56.018Z,1000.00
2023-03-26T00:44:03.548Z,1000.03
2023-03-26T00:54:11.008Z,1000.06
2023-03-26T01:04:18.554Z,1000.09
2023-03-26T01:14:25.796Z,1000.22
2023-03-26T01:24:32.756Z,1000.13
2023-03-26T01:34:40.255Z,1000.36
2023-03-26T01:44:47.604Z,1000.24
2023-03-26T01:54:54.889Z,1000.31
2023-03-26T02:05:02.002Z,1000.25
2023-03-26T02:15:09.223Z,1000.29
2023-03-26T02:25:16.221Z,1000.24
2023-03-26T02:35:23.472Z,1000.30
2023-03-26T02:45:31.235Z,1000.44
2023-03-26T02:55:38.423Z,1000.51
2023-03-26T03:05:45.350Z,1000.61
2023-03-26T03:15:52.374Z,1000.54
2023-03-26T03:26:00.475Z,1000.61
2023-03-26T03:36:07.380Z,1000.63
2023-03-26T03:46:14.170Z,1000.66
2023-03-26T03:56:21.406Z,1000.66
2023-03-26T04:06:28.154Z,1000.77
2023-03-26T04:16:34.741Z,1000.83
2023-03-26T04:26:41.333Z,1000.79
2023-03-26T04:36:47.607Z,1000.78
2023-03-26T04:46:54.600Z,1000.75
2023-03-26T04:57:02.058Z,1000.80
2023-03-26T05:07:09.865Z,1000.85
2023-03-26T05:17:16.761Z,1000.81
2023-03-26T05:27:23.825Z,1000.88
2023-03-26T05:37:31.079Z,1000.90
2023-03-26T05:47:38.564Z,1000.91
2023-03-26T05:57:46.295Z,1000.89
2023-03-26T06:07:53.199Z,1000.97
2023-03-26T06:17:59.972Z,1000.99
2023-03-26T06:28:07.342Z,1001.07
2023-03-26T06:38:14.071Z,1001.22
2023-03-26T06:48:21.152Z,1001.13
2023-03-26T06:58:28.317Z,1001.10
2023-03-26T07:08:35.143Z,1001.25
2023-03-26T07:18:42.304Z,1001.18
2023-03-26T07:29:05.011Z,1001.13
2023-03-26T07:39:01.692Z,1001.17
2023-03-26T07:49:08.760Z,1001.14
2023-03-26T07:59:15.378Z,1001.21
2023-03-26T08:09:22.540Z,1001.15
2023-03-26T08:19:30.028Z,1001.06
2023-03-26T08:29:36.597Z,1001.08
2023-03-26T08:39:43.813Z,1001.07
2023-03-26T08:49:50.859Z,1001.01
2023-03-26T08:59:57.901Z,1000.88
2023-03-26T09:10:05.382Z,1000.74
2023-03-26T09:20:12.147Z,1000.75
2023-03-26T09:30:19.592Z,1000.83
2023-03-26T09:40:26.054Z,1000.89
2023-03-26T09:50:32.932Z,1000.88
2023-03-26T10:00:39.975Z,1000.90
2023-03-26T10:10:46.866Z,1000.98
2023-03-26T10:20:54.268Z,1000.86
2023-03-26T10:31:01.926Z,1000.83
2023-03-26T10:41:08.543Z,1000.91
2023-03-26T10:51:15.770Z,1000.94
2023-03-26T11:01:23.250Z,1000.81
2023-03-26T11:11:30.968Z,1000.74
2023-03-26T11:21:38.184Z,1000.71
2023-03-26T11:31:45.159Z,1000.68
2023-03-26T11:41:52.484Z,1000.67
2023-03-26T11:51:59.440Z,1000.51
2023-03-26T12:02:06.583Z,1000.49
2023-03-26T12:12:13.850Z,1000.28
2023-03-26T12:22:20.676Z,1000.23
2023-03-26T12:32:42.885Z,1000.07
2023-03-26T12:44:55.724Z,1000.04
2023-03-26T12:52:51.860Z,1000.10
2023-03-26T13:02:59.120Z,1000.11
2023-03-26T13:13:06.777Z,1000.07
2023-03-26T13:23:14.016Z,999.94
2023-03-26T13:33:21.370Z,999.93
2023-03-26T13:43:28.139Z,999.95
2023-03-26T13:53:35.140Z,999.89
2023-03-26T14:03:41.962Z,999.85
2023-03-26T14:13:49.393Z,999.79
2023-03-26T14:23:56.067Z,999.81
2023-03-26T14:34:03.090Z,999.73
2023-03-26T14:44:10.499Z,999.75
2023-03-26T14:54:17.261Z,999.68
2023-03-26T15:04:24.441Z,999.57
2023-03-26T15:14:31.480Z,999.58
2023-03-26T15:24:38.451Z,999.48
2023-03-26T15:34:45.622Z,999.54
2023-03-26T15:44:53.939Z,999.50
2023-03-26T15:55:02.014Z,999.53
2023-03-26T16:05:09.757Z,999.51
2023-03-26T16:15:16.707Z,999.61
2023-03-26T16:25:26.869Z,999.64
2023-03-26T16:35:36.055Z,999.73
2023-03-26T16:45:42.817Z,999.79
2023-03-26T16:55:49.708Z,999.73
2023-03-26T17:05:57.185Z,999.77
2023-03-26T17:16:05.333Z,999.84
2023-03-26T17:26:12.773Z,999.92
2023-03-26T17:36:20.353Z,1000.04
2023-03-26T17:46:28.157Z,1000.13
2023-03-26T17:56:35.219Z,1000.17
2023-03-26T18:06:42.647Z,1000.23
2023-03-26T18:16:50.077Z,1000.30
2023-03-26T18:26:57.136Z,1000.30
2023-03-26T18:37:04.330Z,1000.43
2023-03-26T18:47:11.106Z,1000.46
2023-03-26T18:57:18.590Z,1000.58
2023-03-26T19:07:25.535Z,1000.55
2023-03-26T19:17:32.995Z,1000.52
2023-03-26T19:27:39.482Z,1000.59
2023-03-26T19:37:47.865Z,1000.65
2023-03-26T19:48:03.968Z,1000.69
2023-03-26T19:58:06.760Z,1000.74
2023-03-26T20:08:13.449Z,1000.84
2023-03-26T20:18:20.768Z,1000.98
2023-03-26T20:28:27.826Z,1001.04
2023-03-26T20:38:39.369Z,1001.20
2023-03-26T20:48:47.196Z,1001.32
2023-03-26T20:59:03.488Z,1001.34
2023-03-26T21:09:06.121Z,1001.40
2023-03-26T21:19:12.981Z,1001.49
2023-03-26T21:29:19.862Z,1001.53
2023-03-26T21:39:26.789Z,1001.62
2023-03-26T21:49:34.260Z,1001.61
2023-03-26T21:59:41.263Z,1001.73
2023-03-26T22:09:48.392Z,1001.80
2023-03-26T22:19:55.324Z,1001.92
2023-03-26T22:30:02.744Z,1001.92
2023-03-26T22:40:09.464Z,1002.03
2023-03-26T22:50:16.447Z,1002.10
2023-03-26T23:00:23.381Z,1002.14
2023-03-26T23:10:30.716Z,1002.24
2023-03-26T23:20:37.666Z,1002.36
2023-03-26T23:30:44.825Z,1002.49
2023-03-26T23:40:57.255Z,1002.62
2023-03-26T23:51:04.537Z,1002.76
